Time;durP1;ratioP1;P1;durP2;ratioP2;P2;SDS_P1;SDS_P2;PMS_P1;PMS_P2;Temp;Humidity;BMP_temperature;BMP_pressure;BME280_temperature;BME280_humidity;BME280_pressure;Samples;Min_cycle;Max_cycle;Signal;HPM_P1;HPM_P2
2022/05/24 00:00:58;;;;;;;4.80;4.40;;;18.30;27.30;;;;;;5074551;28;20554;-69
2022/05/24 00:03:23;;;;;;;5.03;4.63;;;18.30;27.30;;;;;;5074507;28;20182;-68
2022/05/24 00:05:49;;;;;;;5.23;4.93;;;18.30;27.10;;;;;;5074426;28;20189;-68
2022/05/24 00:08:15;;;;;;;4.93;4.60;;;18.40;26.90;;;;;;5074144;28;20201;-70
2022/05/24 00:10:41;;;;;;;4.67;4.47;;;18.40;26.70;;;;;;5074239;28;20226;-69
2022/05/24 00:13:08;;;;;;;5.00;4.70;;;18.40;26.90;;;;;;5074270;28;20444;-69
2022/05/24 00:15:34;;;;;;;5.20;4.90;;;18.40;26.80;;;;;;5074879;28;20166;-68
2022/05/24 00:18:14;;;;;;;5.33;5.03;;;18.40;26.80;;;;;;5074122;28;20800;-69
2022/05/24 00:20:51;;;;;;;4.80;4.60;;;18.40;26.70;;;;;;5074247;28;20731;-69
2022/05/24 00:23:18;;;;;;;4.20;4.00;;;18.50;26.90;;;;;;5074251;28;20408;-69
2022/05/24 00:25:46;;;;;;;5.00;4.70;;;18.40;27.30;;;;;;5074535;28;20443;-69
2022/05/24 00:28:14;;;;;;;5.30;5.00;;;18.40;27.20;;;;;;5073583;28;20960;-69
2022/05/24 00:30:40;;;;;;;5.53;5.17;;;18.40;26.80;;;;;;5073949;28;20876;-69
2022/05/24 00:33:06;;;;;;;5.30;5.00;;;18.40;26.80;;;;;;5073228;28;20910;-69
2022/05/24 00:35:32;;;;;;;4.90;4.60;;;18.40;27.00;;;;;;5074014;28;20417;-69
2022/05/24 00:37:58;;;;;;;4.33;4.13;;;18.40;27.30;;;;;;5073532;28;20186;-69
2022/05/24 00:40:45;;;;;;;4.47;4.27;;;18.20;27.50;;;;;;5073638;28;20485;-69
2022/05/24 00:43:29;;;;;;;4.37;4.17;;;18.40;27.40;;;;;;5073673;28;20177;-69
2022/05/24 00:46:17;;;;;;;4.80;4.60;;;18.40;27.30;;;;;;5073943;28;20408;-69
2022/05/24 00:48:53;;;;;;;4.60;4.30;;;18.40;27.90;;;;;;5072704;28;20472;-69
2022/05/24 00:51:36;;;;;;;4.50;4.30;;;18.40;27.50;;;;;;5073597;28;20412;-69
2022/05/24 00:54:02;;;;;;;4.30;4.10;;;18.40;27.70;;;;;;5073731;28;20412;-69
2022/05/24 00:56:44;;;;;;;4.47;4.27;;;18.40;27.60;;;;;;5072390;28;20427;-69
2022/05/24 00:59:22;;;;;;;4.90;4.50;;;18.30;27.70;;;;;;5073691;28;20481;-69
2022/05/24 01:01:48;;;;;;;5.13;4.83;;;18.40;27.50;;;;;;5073422;28;20408;-69
2022/05/24 01:04:22;;;;;;;4.80;4.50;;;18.40;27.30;;;;;;5072045;28;20428;-69
2022/05/24 01:06:49;;;;;;;9.93;4.17;;;18.30;27.60;;;;;;5073334;28;20753;-68
2022/05/24 01:09:23;;;;;;;4.40;4.20;;;18.20;28.10;;;;;;5071499;28;20477;-68
2022/05/24 01:11:52;;;;;;;4.73;4.50;;;18.20;27.90;;;;;;5073052;28;20414;-68
2022/05/24 01:14:21;;;;;;;4.97;4.67;;;18.30;27.50;;;;;;5073314;28;20452;-69
2022/05/24 01:16:47;;;;;;;4.13;3.93;;;18.30;27.20;;;;;;5073463;28;20921;-69
2022/05/24 01:19:20;;;;;;;4.50;4.20;;;18.20;27.70;;;;;;5073602;28;20443;-68
2022/05/24 01:21:47;;;;;;;8.40;4.80;;;18.00;28.10;;;;;;5071695;28;20890;-68
2022/05/24 01:24:20;;;;;;;4.50;4.30;;;18.10;27.60;;;;;;5072854;28;20412;-69
2022/05/24 01:26:52;;;;;;;6.73;3.93;;;18.10;27.50;;;;;;5072838;28;20473;-68
2022/05/24 01:29:20;;;;;;;5.00;4.20;;;18.00;27.50;;;;;;5072463;28;20431;-68
2022/05/24 01:37:17;;;;;;;4.47;4.17;;;18.10;27.90;;;;;;5073017;28;20462;-68
2022/05/24 01:39:47;;;;;;;4.60;4.30;;;18.10;27.80;;;;;;5071498;28;20961;-68
2022/05/24 01:42:13;;;;;;;4.20;4.00;;;18.20;27.70;;;;;;5072632;28;20416;-68
2022/05/24 01:44:48;;;;;;;4.60;4.40;;;18.20;27.20;;;;;;5070211;28;20816;-68
2022/05/24 01:47:15;;;;;;;5.07;4.77;;;18.20;27.40;;;;;;5072308;28;20797;-68
2022/05/24 01:49:45;;;;;;;5.00;4.70;;;18.20;27.40;;;;;;5072495;28;20531;-68
2022/05/24 01:52:23;;;;;;;4.77;4.57;;;18.20;27.00;;;;;;5072606;28;20423;-68
2022/05/24 01:54:55;;;;;;;4.67;4.47;;;18.20;27.20;;;;;;5072475;28;20412;-68
2022/05/24 01:57:30;;;;;;;4.40;4.20;;;18.10;27.10;;;;;;5072293;28;20461;-68
2022/05/24 01:59:57;;;;;;;4.87;4.67;;;18.10;27.50;;;;;;5072258;28;20838;-68
2022/05/24 02:02:23;;;;;;;5.10;4.80;;;18.10;26.90;;;;;;5072230;28;20416;-68
2022/05/24 02:04:49;;;;;;;4.77;4.57;;;18.10;27.10;;;;;;5072227;28;20424;-68
2022/05/24 02:07:19;;;;;;;4.47;4.27;;;17.90;27.20;;;;;;5072072;28;20609;-68
2022/05/24 02:09:47;;;;;;;4.47;4.27;;;17.80;27.60;;;;;;5072022;28;20509;-68
2022/05/24 02:12:28;;;;;;;5.00;4.70;;;17.80;27.90;;;;;;5072169;28;20412;-68
2022/05/24 02:14:59;;;;;;;4.37;4.17;;;17.80;27.90;;;;;;5070895;28;20423;-68
2022/05/24 02:17:46;;;;;;;4.60;4.40;;;17.90;27.80;;;;;;5071923;28;20424;-68
2022/05/24 02:20:18;;;;;;;4.17;3.97;;;17.90;27.40;;;;;;5071999;28;20432;-68
2022/05/24 02:22:46;;;;;;;5.00;4.70;;;17.90;27.40;;;;;;5071993;28;20408;-68
2022/05/24 02:25:20;;;;;;;4.50;4.30;;;17.80;27.70;;;;;;5072067;28;20943;-68
2022/05/24 02:27:47;;;;;;;5.60;3.90;;;17.60;27.80;;;;;;5071814;28;20486;-68
2022/05/24 02:30:19;;;;;;;4.80;4.50;;;17.70;27.90;;;;;;5071781;28;20432;-68
2022/05/24 02:32:45;;;;;;;4.17;3.97;;;17.60;28.10;;;;;;5072319;28;20894;-68
2022/05/24 02:35:11;;;;;;;4.17;3.97;;;17.60;27.80;;;;;;5071871;28;20412;-68
2022/05/24 02:37:37;;;;;;;4.10;3.90;;;17.60;27.80;;;;;;5071446;28;20416;-68
2022/05/24 02:42:47;;;;;;;3.93;3.63;;;17.60;27.80;;;;;;5071846;28;20315;-68
2022/05/24 02:45:13;;;;;;;4.60;4.40;;;17.60;27.80;;;;;;5071800;28;20499;-68
2022/05/24 02:47:38;;;;;;;4.20;4.00;;;17.50;27.50;;;;;;5071297;28;20283;-68
2022/05/24 02:50:05;;;;;;;4.23;3.90;;;17.40;27.70;;;;;;5071540;28;20195;-68
2022/05/24 02:52:30;;;;;;;4.00;3.80;;;17.30;27.80;;;;;;5071965;28;20276;-68
2022/05/24 02:54:56;;;;;;;3.90;3.70;;;17.30;28.20;;;;;;5072293;28;20497;-68
2022/05/24 02:57:23;;;;;;;3.80;3.60;;;17.30;28.30;;;;;;5075473;28;20174;-68
2022/05/24 02:59:48;;;;;;;4.20;4.00;;;17.20;28.50;;;;;;5075653;28;20523;-68
2022/05/24 03:02:14;;;;;;;3.93;3.73;;;17.10;28.90;;;;;;5075852;28;20515;-68
2022/05/24 03:04:39;;;;;;;3.87;3.50;;;17.20;28.80;;;;;;5075717;28;20658;-68
2022/05/24 03:09:49;;;;;;;4.00;3.70;;;17.10;28.60;;;;;;5075467;28;20216;-68
2022/05/24 03:14:59;;;;;;;3.30;3.10;;;16.90;29.60;;;;;;5075520;28;20376;-68
2022/05/24 03:17:25;;;;;;;3.80;3.60;;;16.80;30.70;;;;;;5075139;28;21015;-68
2022/05/24 03:19:51;;;;;;;3.00;2.80;;;16.90;30.30;;;;;;5075449;28;20570;-68
2022/05/24 03:22:17;;;;;;;3.50;2.70;;;16.80;31.10;;;;;;5075633;28;20550;-68
2022/05/24 03:24:43;;;;;;;3.00;2.80;;;16.70;31.60;;;;;;5075135;28;20909;-68
2022/05/24 03:27:11;;;;;;;2.87;2.67;;;16.70;31.60;;;;;;5074954;28;20826;-68
2022/05/24 03:29:44;;;;;;;3.63;3.43;;;16.80;32.00;;;;;;5075075;28;20347;-68
2022/05/24 03:32:12;;;;;;;2.97;2.37;;;16.90;31.90;;;;;;5075245;28;20416;-68
2022/05/24 03:34:38;;;;;;;2.50;2.30;;;16.90;32.00;;;;;;5075296;28;20411;-68
2022/05/24 03:37:05;;;;;;;2.60;2.40;;;16.80;32.40;;;;;;5075190;28;20412;-68
2022/05/24 03:39:31;;;;;;;2.83;2.63;;;16.80;32.50;;;;;;5074750;28;20471;-68
2022/05/24 03:41:56;;;;;;;4.47;3.00;;;16.80;33.00;;;;;;5074994;28;20947;-68
2022/05/24 03:44:22;;;;;;;3.23;2.67;;;16.80;32.50;;;;;;5074937;28;20446;-68
2022/05/24 03:46:47;;;;;;;2.70;2.50;;;16.90;32.60;;;;;;5073552;28;20212;-68
2022/05/24 03:49:14;;;;;;;3.13;2.83;;;16.90;32.70;;;;;;5074490;28;20197;-68
2022/05/24 03:51:40;;;;;;;3.70;2.60;;;16.90;33.10;;;;;;5074751;28;20200;-68
2022/05/24 03:54:07;;;;;;;3.23;2.60;;;16.90;32.90;;;;;;5074945;28;20413;-68
2022/05/24 03:56:36;;;;;;;2.40;2.20;;;16.90;33.40;;;;;;5074959;28;20973;-68
2022/05/24 03:59:03;;;;;;;5.63;2.70;;;16.90;33.70;;;;;;5074418;28;20424;-68
2022/05/24 04:01:28;;;;;;;2.60;2.40;;;16.90;33.70;;;;;;5074733;28;20416;-68
2022/05/24 04:03:54;;;;;;;2.60;2.40;;;16.90;33.20;;;;;;5074799;28;20957;-68
2022/05/24 04:06:19;;;;;;;3.07;2.77;;;16.90;32.90;;;;;;5073565;28;20200;-68
2022/05/24 04:08:45;;;;;;;4.70;2.90;;;16.90;32.90;;;;;;5073935;28;20772;-68
2022/05/24 04:11:12;;;;;;;3.40;3.17;;;16.80;33.30;;;;;;5074797;28;20574;-68
2022/05/24 04:13:41;;;;;;;3.23;3.00;;;16.80;32.70;;;;;;5074579;28;20887;-68
2022/05/24 04:16:07;;;;;;;2.83;2.63;;;16.90;31.00;;;;;;5074288;28;20409;-68
2022/05/24 04:18:34;;;;;;;2.97;2.77;;;16.80;30.60;;;;;;5074162;28;20412;-68
2022/05/24 04:21:00;;;;;;;2.90;2.70;;;16.90;31.50;;;;;;5074205;28;20411;-68
2022/05/24 04:23:26;;;;;;;3.10;2.90;;;17.00;30.60;;;;;;5074341;28;20779;-69
2022/05/24 04:25:53;;;;;;;3.37;3.03;;;17.00;30.90;;;;;;5074170;28;20416;-68
2022/05/24 04:28:20;;;;;;;2.77;2.57;;;17.00;30.80;;;;;;5074041;28;20456;-69
2022/05/24 04:30:50;;;;;;;3.20;3.00;;;17.00;31.50;;;;;;5074231;28;20404;-69
2022/05/24 04:33:17;;;;;;;3.93;3.57;;;17.10;30.70;;;;;;5072800;28;20790;-69
2022/05/24 04:35:46;;;;;;;5.70;3.57;;;17.10;30.70;;;;;;5074033;28;20701;-69
2022/05/24 04:38:12;;;;;;;2.93;2.73;;;17.00;30.40;;;;;;5073497;28;21046;-69
2022/05/24 04:43:26;;;;;;;3.37;3.17;;;17.00;30.00;;;;;;5045732;28;20428;-70
2022/05/24 04:45:53;;;;;;;3.63;3.40;;;17.10;30.00;;;;;;5074184;28;20750;-71
2022/05/24 04:48:20;;;;;;;3.30;3.07;;;17.10;29.90;;;;;;5073610;28;20198;-72
2022/05/24 04:50:45;;;;;;;3.83;3.53;;;17.10;30.00;;;;;;5073768;28;20430;-72
2022/05/24 04:53:11;;;;;;;4.23;3.93;;;17.00;30.20;;;;;;5072681;28;20515;-72
2022/05/24 04:55:36;;;;;;;3.50;3.20;;;17.00;30.70;;;;;;5072487;28;20182;-72
2022/05/24 04:58:02;;;;;;;3.97;3.67;;;17.10;30.90;;;;;;5073558;28;20169;-71
2022/05/24 05:00:27;;;;;;;3.10;2.90;;;17.10;31.00;;;;;;5073532;28;20709;-71
2022/05/24 05:02:53;;;;;;;4.20;3.90;;;17.10;31.50;;;;;;5073716;28;20174;-72
2022/05/24 05:05:19;;;;;;;3.53;3.23;;;17.10;32.00;;;;;;5073629;28;20707;-72
2022/05/24 05:07:45;;;;;;;4.40;4.00;;;17.10;31.50;;;;;;5073186;28;20202;-72
2022/05/24 05:10:12;;;;;;;3.63;3.33;;;17.10;31.90;;;;;;5073247;28;20451;-72
2022/05/24 05:12:38;;;;;;;3.33;3.13;;;17.20;32.10;;;;;;5073423;28;20261;-71
2022/05/24 05:15:05;;;;;;;3.60;3.30;;;17.10;32.00;;;;;;5073791;28;20443;-71
2022/05/24 05:17:31;;;;;;;4.70;3.27;;;17.20;30.80;;;;;;5072702;28;20184;-71
2022/05/24 05:19:59;;;;;;;3.37;3.10;;;17.30;30.90;;;;;;5073471;28;20461;-72
2022/05/24 05:22:25;;;;;;;8.20;4.63;;;17.30;30.90;;;;;;5072481;28;20955;-72
2022/05/24 05:24:52;;;;;;;3.23;2.97;;;17.40;30.70;;;;;;5073224;28;20421;-72
2022/05/24 05:27:18;;;;;;;3.67;3.47;;;17.50;30.50;;;;;;5071666;28;20462;-72
2022/05/24 05:32:30;;;;;;;4.27;3.87;;;17.90;29.30;;;;;;5073561;28;21071;-72
2022/05/24 05:34:56;;;;;;;5.03;4.60;;;18.00;28.70;;;;;;5073470;28;20917;-72
2022/05/24 05:37:22;;;;;;;5.20;4.80;;;18.10;28.20;;;;;;5072737;28;20807;-69
2022/05/24 05:39:48;;;;;;;6.97;4.90;;;18.30;27.40;;;;;;5072667;28;20979;-69
2022/05/24 05:42:14;;;;;;;5.17;4.87;;;18.40;27.60;;;;;;5073040;28;20424;-69
2022/05/24 05:44:40;;;;;;;5.50;5.20;;;18.40;27.10;;;;;;5072755;28;20187;-69
2022/05/24 05:47:06;;;;;;;6.47;6.07;;;18.50;27.00;;;;;;5072630;28;20201;-69
2022/05/24 05:49:32;;;;;;;5.63;5.23;;;18.60;26.50;;;;;;5072732;28;20439;-68
2022/05/24 05:51:57;;;;;;;6.20;5.77;;;18.60;26.30;;;;;;5072850;28;20416;-69
2022/05/24 05:54:23;;;;;;;6.27;5.77;;;18.70;26.20;;;;;;5071636;28;20207;-69
2022/05/24 05:56:50;;;;;;;6.37;5.87;;;18.70;25.90;;;;;;5073034;28;20575;-69
2022/05/24 05:59:16;;;;;;;6.00;5.33;;;18.70;25.90;;;;;;5072151;28;20424;-69
2022/05/24 06:01:42;;;;;;;5.90;5.60;;;18.70;25.80;;;;;;5072612;28;20752;-69
2022/05/24 06:04:09;;;;;;;6.30;5.80;;;18.80;25.60;;;;;;5071025;28;20174;-70
2022/05/24 06:06:39;;;;;;;14.27;9.43;;;18.90;25.60;;;;;;5072234;28;20441;-69
2022/05/24 06:09:05;;;;;;;8.73;7.63;;;19.00;25.60;;;;;;5070781;28;21049;-69
2022/05/24 06:11:31;;;;;;;7.47;7.07;;;19.10;25.10;;;;;;5072269;28;20408;-69
2022/05/24 06:13:56;;;;;;;7.53;7.23;;;19.20;23.90;;;;;;5072347;28;20186;-69
2022/05/24 06:16:22;;;;;;;7.97;7.67;;;19.20;23.80;;;;;;5072314;28;20200;-69
2022/05/24 06:18:47;;;;;;;7.53;7.13;;;19.30;23.20;;;;;;5072079;28;20189;-69
2022/05/24 06:21:13;;;;;;;7.63;7.17;;;19.40;23.70;;;;;;5072049;28;20178;-69
2022/05/24 06:23:39;;;;;;;7.30;6.90;;;19.50;23.70;;;;;;5072062;28;20182;-69
2022/05/24 06:26:05;;;;;;;8.20;7.40;;;19.50;24.00;;;;;;5072058;28;20836;-69
2022/05/24 06:28:31;;;;;;;9.47;8.87;;;19.50;24.10;;;;;;5070289;28;20214;-69
2022/05/24 06:30:56;;;;;;;8.90;8.50;;;19.60;21.70;;;;;;5071514;28;20289;-69
2022/05/24 06:33:22;;;;;;;9.00;8.40;;;19.60;21.70;;;;;;5070742;28;20209;-69
2022/05/24 06:35:47;;;;;;;8.87;8.37;;;19.70;22.20;;;;;;5071055;28;20467;-69
2022/05/24 06:38:13;;;;;;;9.53;8.90;;;19.90;22.50;;;;;;5071876;28;20185;-68
2022/05/24 06:40:39;;;;;;;10.20;9.63;;;20.00;20.90;;;;;;5071769;28;20214;-69
2022/05/24 06:43:05;;;;;;;10.37;9.80;;;20.10;19.60;;;;;;5070471;28;20185;-69
2022/05/24 06:45:31;;;;;;;9.60;9.20;;;20.10;18.70;;;;;;5070554;28;20412;-71
2022/05/24 06:47:57;;;;;;;10.00;9.60;;;20.20;17.30;;;;;;5070299;28;20236;-69
2022/05/24 06:50:23;;;;;;;11.67;10.87;;;20.20;18.00;;;;;;5070725;28;20451;-69
2022/05/24 06:52:55;;;;;;;11.23;10.73;;;20.30;16.80;;;;;;5071894;28;20743;-69
2022/05/24 06:55:22;;;;;;;11.07;10.53;;;20.50;16.50;;;;;;5071666;28;20893;-70
2022/05/24 06:57:49;;;;;;;10.70;10.10;;;20.70;17.00;;;;;;5087078;28;20432;-68
2022/05/24 07:03:06;;;;;;;11.37;10.87;;;21.30;16.30;;;;;;5047812;28;20957;-68
2022/05/24 07:05:32;;;;;;;11.90;11.40;;;21.40;14.90;;;;;;5048465;28;20520;-68
2022/05/24 07:08:01;;;;;;;12.50;11.87;;;21.40;14.00;;;;;;5067615;28;20521;-68
2022/05/24 07:10:27;;;;;;;11.23;10.83;;;21.40;14.90;;;;;;5061478;28;20460;-68
2022/05/24 07:13:12;;;;;;;12.97;12.10;;;21.40;13.60;;;;;;5063974;28;20439;-68
2022/05/24 07:15:38;;;;;;;11.47;10.77;;;21.30;14.00;;;;;;5060877;28;20440;-68
2022/05/24 07:18:04;;;;;;;11.30;10.80;;;21.30;15.20;;;;;;5066846;28;20435;-68
2022/05/24 07:20:33;;;;;;;11.30;10.80;;;21.00;14.70;;;;;;5067384;28;20201;-68
2022/05/24 07:23:07;;;;;;;11.10;10.50;;;;;;;;;;5069542;28;20432;-68
2022/05/24 07:25:32;;;;;;;10.80;10.40;;;20.60;14.60;;;;;;5060633;28;20436;-68
2022/05/24 07:27:58;;;;;;;10.60;10.20;;;20.50;15.80;;;;;;5062692;28;20468;-69
2022/05/24 07:30:23;;;;;;;11.17;10.23;;;20.40;16.30;;;;;;5067352;28;20198;-71
2022/05/24 07:32:49;;;;;;;9.50;9.10;;;20.20;17.80;;;;;;5067508;28;20186;-68
2022/05/24 07:35:15;;;;;;;9.80;9.20;;;;;;;;;;5065285;28;20177;-68
2022/05/24 07:37:40;;;;;;;8.80;8.40;;;19.50;19.70;;;;;;5047298;28;20217;-71
2022/05/24 07:48:13;;;;;;;7.67;7.37;;;18.30;20.70;;;;;;5070359;28;20547;-68
2022/05/24 07:50:39;;;;;;;7.80;7.50;;;17.90;21.10;;;;;;5071256;28;20427;-68
2022/05/24 07:53:06;;;;;;;7.57;7.17;;;;;;;;;;5062166;28;20771;-68
2022/05/24 07:55:31;;;;;;;8.00;7.70;;;17.50;20.60;;;;;;5051381;28;20424;-68
2022/05/24 07:58:00;;;;;;;7.47;7.07;;;17.60;21.40;;;;;;5070313;28;20799;-67
2022/05/24 08:00:26;;;;;;;7.57;7.07;;;17.70;21.40;;;;;;5069155;28;20201;-68
2022/05/24 08:02:52;;;;;;;8.23;7.50;;;17.60;20.50;;;;;;5069574;28;20937;-67
2022/05/24 08:05:19;;;;;;;7.30;7.00;;;17.50;21.80;;;;;;5082750;28;20186;-67
2022/05/24 08:07:45;;;;;;;7.30;6.90;;;17.20;22.90;;;;;;5069979;28;20632;-68
2022/05/24 08:10:13;;;;;;;7.30;7.00;;;17.50;21.90;;;;;;5070384;28;20592;-68
2022/05/24 08:12:39;;;;;;;7.33;7.03;;;18.00;21.60;;;;;;5067733;28;20182;-67
2022/05/24 08:15:05;;;;;;;7.90;7.50;;;18.40;21.90;;;;;;5068607;28;20511;-68
2022/05/24 08:17:31;;;;;;;8.40;8.00;;;18.90;20.60;;;;;;5069824;28;21007;-68
2022/05/24 08:19:57;;;;;;;9.57;9.17;;;;;;;;;;5070095;28;20513;-70
2022/05/24 08:22:23;;;;;;;10.90;10.20;;;20.50;17.80;;;;;;5068378;28;20197;-69
2022/05/24 08:24:48;;;;;;;12.37;11.73;;;21.10;17.30;;;;;;5069869;28;20436;-69
2022/05/24 08:27:16;;;;;;;12.90;12.40;;;21.90;14.90;;;;;;5069812;28;20205;-68
2022/05/24 08:29:41;;;;;;;12.83;12.23;;;22.20;13.30;;;;;;5073917;28;20204;-68
2022/05/24 08:32:07;;;;;;;12.40;11.80;;;21.90;13.70;;;;;;5056224;28;20417;-68
2022/05/24 08:34:33;;;;;;;11.93;11.43;;;21.60;13.60;;;;;;5057609;28;20253;-68
2022/05/24 08:36:59;;;;;;;11.83;11.43;;;21.50;12.60;;;;;;5073874;28;20503;-68
2022/05/24 08:39:26;;;;;;;13.97;12.60;;;21.50;12.60;;;;;;5073578;28;20201;-68
2022/05/24 08:42:04;;;;;;;13.80;12.80;;;21.60;12.40;;;;;;5073620;28;20787;-68
2022/05/24 08:50:41;;;;;;;13.00;12.50;;;21.30;10.50;;;;;;5073569;28;20431;-68
2022/05/24 08:53:10;;;;;;;13.00;12.50;;;21.30;9.80;;;;;;5073049;28;20795;-70
2022/05/24 08:55:38;;;;;;;12.23;11.83;;;21.30;10.70;;;;;;5073306;28;20420;-69
2022/05/24 08:58:05;;;;;;;12.50;12.10;;;21.60;11.20;;;;;;5073404;28;20408;-69
2022/05/24 09:00:35;;;;;;;13.57;12.73;;;21.50;10.10;;;;;;5072013;28;20452;-69
2022/05/24 09:03:07;;;;;;;12.50;12.07;;;21.20;9.70;;;;;;5073141;28;20473;-68
2022/05/24 09:05:39;;;;;;;13.23;12.73;;;20.90;10.80;;;;;;5073694;28;20879;-70
2022/05/24 09:08:27;;;;;;;13.30;12.80;;;20.30;11.00;;;;;;5073331;28;20463;-69
2022/05/24 09:11:12;;;;;;;12.40;11.90;;;19.90;11.30;;;;;;5073035;28;20448;-70
2022/05/24 09:13:47;;;;;;;12.63;12.23;;;20.10;12.20;;;;;;5073029;28;20898;-70
2022/05/24 09:16:15;;;;;;;12.27;11.87;;;20.20;10.80;;;;;;5072850;28;20824;-69
2022/05/24 09:19:05;;;;;;;13.50;13.00;;;20.20;11.90;;;;;;5069239;28;20452;-68
2022/05/24 09:21:35;;;;;;;13.40;12.90;;;20.60;10.90;;;;;;5053109;28;20791;-70
2022/05/24 09:24:31;;;;;;;13.57;13.07;;;21.00;10.50;;;;;;5051770;28;20425;-69
2022/05/24 09:27:18;;;;;;;13.43;12.93;;;21.40;10.20;;;;;;5071165;28;20482;-69
2022/05/24 09:29:59;;;;;;;13.00;12.50;;;21.40;8.50;;;;;;5072703;28;20507;-69
2022/05/24 09:32:35;;;;;;;13.63;13.13;;;21.40;8.80;;;;;;5065244;28;20432;-69
2022/05/24 09:35:16;;;;;;;14.20;13.60;;;21.30;8.40;;;;;;5076243;28;20436;-69
2022/05/24 09:37:43;;;;;;;13.50;13.00;;;21.30;8.80;;;;;;5068339;28;20436;-69
2022/05/24 09:40:22;;;;;;;13.20;12.70;;;21.20;9.70;;;;;;5071427;28;20451;-70
2022/05/24 09:42:49;;;;;;;14.20;13.70;;;21.10;9.20;;;;;;5068017;28;20443;-68
2022/05/24 09:45:17;;;;;;;12.47;11.97;;;21.20;9.70;;;;;;5068509;28;20426;-69
2022/05/24 09:47:43;;;;;;;13.90;13.20;;;21.20;9.00;;;;;;5087811;28;20460;-69
2022/05/24 09:50:15;;;;;;;13.40;12.90;;;21.60;8.70;;;;;;5072419;28;20531;-69
2022/05/24 09:53:01;;;;;;;13.77;13.27;;;22.10;9.00;;;;;;5072416;28;20174;-69
2022/05/24 09:55:26;;;;;;;14.40;13.77;;;22.30;8.00;;;;;;5072390;28;20838;-70
2022/05/24 09:57:52;;;;;;;15.17;14.20;;;22.40;8.00;;;;;;5072164;28;20423;-69
2022/05/24 10:00:23;;;;;;;13.57;13.07;;;22.70;7.50;;;;;;5072162;28;20204;-69
2022/05/24 10:03:02;;;;;;;14.40;13.90;;;22.20;7.40;;;;;;5072258;28;20185;-68
2022/05/24 10:05:28;;;;;;;14.50;13.90;;;22.40;6.40;;;;;;5071380;28;20776;-68
2022/05/24 10:07:58;;;;;;;13.90;13.40;;;22.50;6.90;;;;;;5070638;28;20468;-68
2022/05/24 10:10:38;;;;;;;13.70;13.10;;;22.70;6.40;;;;;;5072275;28;20428;-69
2022/05/24 10:13:29;;;;;;;14.00;13.50;;;22.80;5.40;;;;;;5072094;28;20426;-69
2022/05/24 10:16:17;;;;;;;14.13;13.53;;;22.20;6.30;;;;;;5072177;28;20412;-68
2022/05/24 10:19:14;;;;;;;13.47;12.87;;;22.20;6.20;;;;;;5072070;28;20469;-68
2022/05/24 10:21:45;;;;;;;13.07;12.57;;;22.00;6.50;;;;;;5071434;28;20420;-68
2022/05/24 10:24:33;;;;;;;12.70;12.30;;;22.20;7.90;;;;;;5071972;28;20800;-68
2022/05/24 10:27:03;;;;;;;12.77;12.27;;;22.30;6.60;;;;;;5071880;28;20502;-70
2022/05/24 10:29:49;;;;;;;12.53;12.03;;;22.30;5.10;;;;;;5069970;28;20499;-69
2022/05/24 10:38:45;;;;;;;13.10;12.60;;;21.40;7.10;;;;;;5070671;28;20435;-70
2022/05/24 10:41:42;;;;;;;12.90;12.40;;;20.70;7.80;;;;;;5072079;28;20952;-69
2022/05/24 10:44:32;;;;;;;12.80;12.30;;;20.70;6.30;;;;;;5060005;28;20432;-69
2022/05/24 10:47:21;;;;;;;13.00;12.50;;;20.50;7.90;;;;;;5071673;28;20511;-69
2022/05/24 10:49:50;;;;;;;12.73;12.33;;;20.70;7.30;;;;;;5071410;28;20980;-69
2022/05/24 10:52:42;;;;;;;13.30;12.80;;;20.70;7.20;;;;;;5071181;28;20420;-69
2022/05/24 10:55:19;;;;;;;12.63;12.20;;;20.60;5.10;;;;;;5070383;28;20542;-70
2022/05/24 10:58:05;;;;;;;13.40;12.87;;;20.30;5.90;;;;;;5074923;28;20929;-70
2022/05/24 11:00:47;;;;;;;13.60;13.10;;;20.70;5.20;;;;;;5077042;28;20452;-70
2022/05/24 11:03:16;;;;;;;13.33;12.83;;;20.60;6.40;;;;;;5072254;28;20858;-69
2022/05/24 11:05:45;;;;;;;13.70;13.10;;;21.10;6.60;;;;;;5070232;28;20424;-69
2022/05/24 11:08:51;;;;;;;14.00;13.50;;;21.50;5.70;;;;;;5071283;28;20463;-70
2022/05/24 11:11:29;;;;;;;14.03;13.50;;;21.90;5.50;;;;;;5071177;28;20836;-70
2022/05/24 11:14:23;;;;;;;13.00;12.50;;;22.00;3.80;;;;;;5071487;28;20921;-70
2022/05/24 11:16:51;;;;;;;12.60;11.97;;;22.20;4.50;;;;;;5062706;28;20466;-70
2022/05/24 11:19:26;;;;;;;13.33;12.83;;;22.30;4.60;;;;;;5073410;28;20455;-70
2022/05/24 11:22:29;;;;;;;13.43;12.93;;;22.50;4.50;;;;;;5075307;28;20724;-70
2022/05/24 11:25:02;;;;;;;13.00;12.33;;;22.70;4.80;;;;;;5074995;28;20776;-70
2022/05/24 11:27:31;;;;;;;13.50;13.00;;;22.40;4.60;;;;;;5074967;28;20525;-71
2022/05/24 11:30:18;;;;;;;13.03;12.53;;;22.70;4.80;;;;;;5075688;28;20524;-71
2022/05/24 11:33:09;;;;;;;14.97;14.17;;;23.10;4.60;;;;;;5063959;28;20412;-70
2022/05/24 11:35:44;;;;;;;14.00;13.10;;;23.20;4.20;;;;;;5074899;28;20459;-71
2022/05/24 11:38:22;;;;;;;12.60;12.10;;;22.40;3.60;;;;;;5074910;28;20540;-70
2022/05/24 11:40:58;;;;;;;12.63;12.23;;;22.40;3.50;;;;;;5075052;28;20577;-71
2022/05/24 11:43:35;;;;;;;13.00;12.40;;;22.50;2.30;;;;;;5074398;28;20463;-71
2022/05/24 11:46:38;;;;;;;13.50;13.00;;;22.70;2.80;;;;;;5074190;28;20418;-71
2022/05/24 11:49:19;;;;;;;13.17;12.60;;;23.10;2.00;;;;;;5072943;28;20470;-71
2022/05/24 11:51:48;;;;;;;13.40;12.90;;;23.00;2.20;;;;;;5088766;28;20507;-71
2022/05/24 11:54:19;;;;;;;12.90;12.40;;;23.10;2.30;;;;;;5073250;28;20963;-71
2022/05/24 11:57:00;;;;;;;13.77;13.27;;;23.30;1.50;;;;;;5073312;28;20829;-71
2022/05/24 11:59:49;;;;;;;14.87;14.07;;;23.40;2.00;;;;;;5072731;28;20428;-71
2022/05/24 12:02:26;;;;;;;14.07;13.37;;;23.60;2.50;;;;;;5073620;28;20412;-71
2022/05/24 12:07:56;;;;;;;14.07;13.57;;;24.00;2.10;;;;;;5074398;28;20544;-69
2022/05/24 12:10:22;;;;;;;14.80;14.30;;;23.90;1.00;;;;;;5074494;28;20481;-72
2022/05/24 12:13:11;;;;;;;13.90;13.40;;;23.90;1.70;;;;;;5074350;28;20420;-70
2022/05/24 12:15:40;;;;;;;13.80;13.30;;;24.00;2.20;;;;;;5074703;28;20232;-70
2022/05/24 12:18:06;;;;;;;13.57;13.07;;;24.20;1.10;;;;;;5074474;28;20424;-70
2022/05/24 12:20:34;;;;;;;13.97;13.47;;;24.50;1.60;;;;;;5074489;28;20443;-70
2022/05/24 12:23:16;;;;;;;13.80;13.30;;;24.80;1.30;;;;;;5074206;28;20185;-70
2022/05/24 12:26:12;;;;;;;14.40;13.80;;;24.80;1.50;;;;;;5090167;28;20457;-70
2022/05/24 12:28:37;;;;;;;13.87;13.37;;;25.00;1.00;;;;;;5073084;28;20499;-67
2022/05/24 12:31:18;;;;;;;13.57;13.07;;;25.20;1.00;;;;;;5074130;28;20456;-68
2022/05/24 12:34:08;;;;;;;14.40;13.90;;;25.20;1.80;;;;;;5074865;28;20177;-68
2022/05/24 12:36:39;;;;;;;13.90;13.40;;;25.00;1.00;;;;;;5074182;28;20412;-69
2022/05/24 12:39:08;;;;;;;14.57;13.97;;;25.00;1.70;;;;;;5073672;28;20454;-69
2022/05/24 12:41:38;;;;;;;13.80;13.20;;;25.10;1.00;;;;;;5074257;28;20507;-68
2022/05/24 12:44:25;;;;;;;14.50;13.80;;;24.70;1.00;;;;;;5089539;28;20412;-68
2022/05/24 13:33:39;;;;;;;14.20;13.70;;;25.50;1.00;;;;;;5285792;22;20850;-71
2022/05/24 13:36:15;;;;;;;14.97;14.37;;;25.30;1.00;;;;;;4993691;28;20487;-72
2022/05/24 13:38:42;;;;;;;14.40;13.90;;;25.50;1.00;;;;;;4993649;28;20988;-71
2022/05/24 13:41:09;;;;;;;14.20;13.70;;;25.70;1.00;;;;;;4993856;28;20894;-70
2022/05/24 13:43:37;;;;;;;14.00;13.50;;;25.80;1.00;;;;;;4993424;28;20447;-70
2022/05/24 13:46:21;;;;;;;14.53;13.93;;;25.70;1.00;;;;;;4993551;28;20486;-71
2022/05/24 13:48:58;;;;;;;14.10;13.50;;;25.70;1.00;;;;;;4992941;28;21000;-70
2022/05/24 13:51:33;;;;;;;14.00;13.50;;;25.70;1.00;;;;;;4993149;28;20419;-70
2022/05/24 13:54:01;;;;;;;13.97;13.47;;;25.70;1.00;;;;;;4993193;28;20442;-70
2022/05/24 13:56:37;;;;;;;13.67;13.17;;;25.50;1.00;;;;;;4993261;28;20482;-69
2022/05/24 13:59:17;;;;;;;13.47;12.97;;;25.10;1.00;;;;;;4993782;28;20478;-69
2022/05/24 14:01:43;;;;;;;13.70;13.20;;;25.10;1.00;;;;;;4993348;28;20415;-69
2022/05/24 14:04:18;;;;;;;14.10;13.50;;;25.20;1.00;;;;;;4982609;28;20448;-70
2022/05/24 14:06:57;;;;;;;14.10;13.50;;;25.00;1.00;;;;;;4990303;28;20426;-70
2022/05/24 14:09:23;;;;;;;13.80;13.30;;;24.90;1.00;;;;;;4994702;28;20470;-70
2022/05/24 14:11:58;;;;;;;13.60;13.10;;;25.10;1.00;;;;;;4993381;28;20422;-70
2022/05/24 14:14:25;;;;;;;13.50;13.00;;;25.30;1.00;;;;;;4993954;28;20423;-70
2022/05/24 14:16:52;;;;;;;14.23;13.50;;;25.50;1.00;;;;;;4992846;28;20485;-70
2022/05/24 14:19:18;;;;;;;13.83;13.33;;;25.70;1.00;;;;;;4993602;28;20882;-70
2022/05/24 14:21:45;;;;;;;14.07;13.40;;;25.60;1.00;;;;;;4993053;28;20811;-70
2022/05/24 14:24:14;;;;;;;13.70;13.00;;;25.20;1.00;;;;;;4993425;28;20474;-70
2022/05/24 14:26:46;;;;;;;13.83;13.33;;;25.10;1.00;;;;;;4993199;28;20481;-70
2022/05/24 14:29:11;;;;;;;13.37;12.87;;;25.20;1.00;;;;;;4993334;28;20554;-70
2022/05/24 14:31:39;;;;;;;14.47;13.57;;;25.10;1.00;;;;;;4985592;28;20572;-70
2022/05/24 14:34:08;;;;;;;13.93;13.43;;;24.50;1.00;;;;;;4973534;28;20213;-70